KAWM/AWM METAR and TAF weather

Enter ICAO airport designator
Station Type Date Time Source
KAWM METAR 2020/01/19 02:53 UTC NOAA

KAWM 190253Z AUTO 35007KT 10SM CLR 06/M03 A3030 RMK AO2 SLP262 T00611028 51034


Station Type Date Time Source
KAWM Decoded METAR 2020/01/19 02:53 UTC NOAA

WEST MEMPHIS MUNICIPAL AIRPORT, AR, United States (KAWM) 35-08N 090-14W
Jan 18, 2020 - 09:53 PM EST / 2020.01.19 0253 UTC
Wind: from the N (350 degrees) at 8 MPH (7 KT):0
Visibility: 10 mile(s):0
Sky conditions: clear
Temperature: 43.0 F (6.1 C)
Dew Point: 27.0 F (-2.8 C)
Relative Humidity: 52%
Pressure (altimeter): 30.3 in. Hg (1026 hPa)
Pressure tendency: 0.10 inches (3.4 hPa) higher than three hours ago
ob: KAWM 190253Z AUTO 35007KT 10SM CLR 06/M03 A3030 RMK AO2 SLP262 T00611028 51034
cycle: 3

Station Type Date Time Source
KAWM TAF UTC NOAA

Error!

Example: see airport list